Etusivu
METAR-TAF:

METAR-TAF

Lentoasemat :

Porin lentoasema

Pori, Suomi

Leveyspiiri: 61-28N, Pituuspiiri: 021-48E, korkeus merenpinnasta: 13 m

Tämänhetkinen sää

Tämä raportti tehtiin 20 minuuttia sitten, kello 13.20 UTC
Tuuli 15 kn lännestä
Lämpötila 10°C
Kosteus 62%
Ilmanpaine 1019 hPa
Näkyvyys 10 km tai enemmän

METAR: EFPO 251320Z AUTO 26015KT 9999 BKN066/// BKN075/// 10/03 Q1019

Aika: 16:40 (13:40 UTC)

Sääennuste

Tämä raportti tehtiin 2 tuntia ja 10 minuuttia sitten, kello 11.30 UTC
Ennuste voimassa 25. päivästä klo 12 UTC - 25. päivään klo 21 UTC
Tuuli 13 kn lännestä/luoteesta
Näkyvyys 10 km tai enemmän
Hajanaisia pilviä 3000 ft:n korkeudessa

TAF: EFPO 251130Z 2512/2521 29013KT 9999 SCT030

Säähavainnot ja -ennusteet yli 4000 lentoasemalta (METAR- ja TAF-raportit).

Käytössä olevat sääasemat on merkitty karttaan keltaisilla ja punaisilla pisteillä.

Aseta hiiri pisteen päälle nähdäksesi sääaseman nimen.

Klikkaa sitten nähdäksesi säähavainnot ja -ennusteet.

Kartan vaihtaminen: klikkaa mustalla rastilla varustettuja vihreitä pisteitä, niin voit zoomata sisään; viivalla varustettua vihreää pistettä, niin voit zoomata ulos tai vihreitä nuolia, niin pääset viereisille kartoille.


METAR-TAF: